sensor_id;sensor_type;location;lat;lon;timestamp;pressure;altitude;pressure_sealevel;temperature;humidity
12722;BME280;6425;50.316;8.114;2023-03-25T00:00:00;980;;;6.7;88.4
12722;BME280;6425;50.316;8.114;2023-03-25T00:03:00;980;;;6.5;89.5
12722;BME280;6425;50.316;8.114;2023-03-25T00:06:00;980;;;6.5;89.7
12722;BME280;6425;50.316;8.114;2023-03-25T00:09:00;980;;;6.5;89.6
12722;BME280;6425;50.316;8.114;2023-03-25T00:12:00;980;;;6.5;88.7
12722;BME280;6425;50.316;8.114;2023-03-25T00:15:00;980;;;6.6;88.3
12722;BME280;6425;50.316;8.114;2023-03-25T00:18:00;981;;;6.8;87.1
12722;BME280;6425;50.316;8.114;2023-03-25T00:21:00;981;;;6.8;86.9
12722;BME280;6425;50.316;8.114;2023-03-25T00:24:00;981;;;6.9;85.4
12722;BME280;6425;50.316;8.114;2023-03-25T00:27:00;981;;;6.9;85.6
12722;BME280;6425;50.316;8.114;2023-03-25T00:30:00;981;;;6.8;86
12722;BME280;6425;50.316;8.114;2023-03-25T00:33:00;981;;;6.7;86
12722;BME280;6425;50.316;8.114;2023-03-25T00:36:00;981;;;6.7;86.5
12722;BME280;6425;50.316;8.114;2023-03-25T00:39:00;981;;;6.7;86.5
12722;BME280;6425;50.316;8.114;2023-03-25T00:42:00;981;;;6.8;85.8
12722;BME280;6425;50.316;8.114;2023-03-25T00:45:00;981;;;6.5;86.8
12722;BME280;6425;50.316;8.114;2023-03-25T00:48:00;981;;;6.5;87.7
12722;BME280;6425;50.316;8.114;2023-03-25T00:51:00;981;;;6.6;87.2
12722;BME280;6425;50.316;8.114;2023-03-25T00:54:00;981;;;6.5;87.7
12722;BME280;6425;50.316;8.114;2023-03-25T00:57:00;981;;;6.6;87.4
12722;BME280;6425;50.316;8.114;2023-03-25T01:00:00;981;;;6.7;87.2
12722;BME280;6425;50.316;8.114;2023-03-25T01:03:00;981;;;7.1;86.2
12722;BME280;6425;50.316;8.114;2023-03-25T01:06:00;981;;;7;85.3
12722;BME280;6425;50.316;8.114;2023-03-25T01:09:00;981;;;7.2;85.2
12722;BME280;6425;50.316;8.114;2023-03-25T01:12:00;981;;;7.3;84.6
12722;BME280;6425;50.316;8.114;2023-03-25T01:15:00;981;;;7;85.5
12722;BME280;6425;50.316;8.114;2023-03-25T01:18:00;980;;;7.1;86.1
12722;BME280;6425;50.316;8.114;2023-03-25T01:21:00;981;;;7.1;85.9
12722;BME280;6425;50.316;8.114;2023-03-25T01:24:00;980;;;7.2;86.3
12722;BME280;6425;50.316;8.114;2023-03-25T01:27:00;980;;;7.1;86.6
12722;BME280;6425;50.316;8.114;2023-03-25T01:30:00;980;;;7.3;85.8
12722;BME280;6425;50.316;8.114;2023-03-25T01:33:00;980;;;7.7;84.3
12722;BME280;6425;50.316;8.114;2023-03-25T01:36:00;980;;;7.7;82.7
12722;BME280;6425;50.316;8.114;2023-03-25T01:39:00;980;;;7.9;82.1
12722;BME280;6425;50.316;8.114;2023-03-25T01:42:00;980;;;8.1;81.1
12722;BME280;6425;50.316;8.114;2023-03-25T01:45:18;980;;;8.3;80.1
12722;BME280;6425;50.316;8.114;2023-03-25T01:48:01;980;;;8.2;79.2
12722;BME280;6425;50.316;8.114;2023-03-25T01:51:01;980;;;7.8;82.6
12722;BME280;6425;50.316;8.114;2023-03-25T01:54:00;980;;;7.5;83.8
12722;BME280;6425;50.316;8.114;2023-03-25T01:57:00;980;;;7.5;85.4
12722;BME280;6425;50.316;8.114;2023-03-25T02:00:00;980;;;7.6;84.7
12722;BME280;6425;50.316;8.114;2023-03-25T02:03:00;980;;;7.8;84.6
12722;BME280;6425;50.316;8.114;2023-03-25T02:06:00;980;;;7.8;84.5
12722;BME280;6425;50.316;8.114;2023-03-25T02:09:00;980;;;7.7;84.3
12722;BME280;6425;50.316;8.114;2023-03-25T02:12:00;980;;;7.6;84.6
12722;BME280;6425;50.316;8.114;2023-03-25T02:15:00;980;;;7.5;85.4
12722;BME280;6425;50.316;8.114;2023-03-25T02:18:04;980;;;7.6;85.4
12722;BME280;6425;50.316;8.114;2023-03-25T02:24:05;980;;;7.3;86.8
12722;BME280;6425;50.316;8.114;2023-03-25T02:28:07;980;;;7.3;88.4
12722;BME280;6425;50.316;8.114;2023-03-25T02:30:03;980;;;7.4;88.4
12722;BME280;6425;50.316;8.114;2023-03-25T02:33:21;980;;;7.4;89.3
12722;BME280;6425;50.316;8.114;2023-03-25T02:36:10;980;;;7.2;89.2
12722;BME280;6425;50.316;8.114;2023-03-25T02:39:00;980;;;7.1;89.9
12722;BME280;6425;50.316;8.114;2023-03-25T02:42:02;980;;;7;90.5
12722;BME280;6425;50.316;8.114;2023-03-25T02:45:00;980;;;7.1;90.5
12722;BME280;6425;50.316;8.114;2023-03-25T02:48:00;980;;;7.1;90.5
12722;BME280;6425;50.316;8.114;2023-03-25T02:51:00;979;;;7.1;89.9
12722;BME280;6425;50.316;8.114;2023-03-25T02:54:01;979;;;7.1;89.6
12722;BME280;6425;50.316;8.114;2023-03-25T02:57:00;979;;;7;89.8
12722;BME280;6425;50.316;8.114;2023-03-25T03:00:00;980;;;7.1;89.3
12722;BME280;6425;50.316;8.114;2023-03-25T03:03:00;980;;;7;89.4
12722;BME280;6425;50.316;8.114;2023-03-25T03:06:00;979;;;7.2;88.4
12722;BME280;6425;50.316;8.114;2023-03-25T03:09:04;979;;;7.1;88.8
12722;BME280;6425;50.316;8.114;2023-03-25T03:12:04;979;;;7.1;88
12722;BME280;6425;50.316;8.114;2023-03-25T03:15:04;979;;;7;89.3
12722;BME280;6425;50.316;8.114;2023-03-25T03:18:03;979;;;7.1;88.8
12722;BME280;6425;50.316;8.114;2023-03-25T03:21:02;979;;;7.2;88
12722;BME280;6425;50.316;8.114;2023-03-25T03:24:01;979;;;7.2;88.4
12722;BME280;6425;50.316;8.114;2023-03-25T03:27:02;980;;;7.2;88.3
12722;BME280;6425;50.316;8.114;2023-03-25T03:30:02;980;;;7.2;88.2
12722;BME280;6425;50.316;8.114;2023-03-25T03:33:01;980;;;7.2;88.3
12722;BME280;6425;50.316;8.114;2023-03-25T03:36:00;979;;;7;89.4
12722;BME280;6425;50.316;8.114;2023-03-25T03:39:00;979;;;7.1;89.3
12722;BME280;6425;50.316;8.114;2023-03-25T03:42:01;980;;;7;89.8
12722;BME280;6425;50.316;8.114;2023-03-25T03:45:01;980;;;6.9;91.2
12722;BME280;6425;50.316;8.114;2023-03-25T03:48:00;980;;;6.8;93
12722;BME280;6425;50.316;8.114;2023-03-25T03:51:01;980;;;6.7;94
12722;BME280;6425;50.316;8.114;2023-03-25T03:54:01;980;;;6.8;93.5
12722;BME280;6425;50.316;8.114;2023-03-25T03:57:00;980;;;6.8;93
12722;BME280;6425;50.316;8.114;2023-03-25T04:00:01;980;;;6.9;92.2
12722;BME280;6425;50.316;8.114;2023-03-25T04:03:00;980;;;6.7;92.6
12722;BME280;6425;50.316;8.114;2023-03-25T04:06:00;980;;;6.8;91.5
12722;BME280;6425;50.316;8.114;2023-03-25T04:09:02;980;;;7;89.4
12722;BME280;6425;50.316;8.114;2023-03-25T04:12:01;980;;;6.9;89
12722;BME280;6425;50.316;8.114;2023-03-25T04:15:00;980;;;6.8;88.9
12722;BME280;6425;50.316;8.114;2023-03-25T04:18:00;980;;;6.8;87.4
12722;BME280;6425;50.316;8.114;2023-03-25T04:21:00;980;;;7;86.7
12722;BME280;6425;50.316;8.114;2023-03-25T04:24:00;980;;;6.8;87.8
12722;BME280;6425;50.316;8.114;2023-03-25T04:27:00;980;;;6.9;87.4
12722;BME280;6425;50.316;8.114;2023-03-25T04:30:00;980;;;6.9;87.3
12722;BME280;6425;50.316;8.114;2023-03-25T04:33:00;980;;;7;85.8
12722;BME280;6425;50.316;8.114;2023-03-25T04:36:00;980;;;6.9;86.5
12722;BME280;6425;50.316;8.114;2023-03-25T04:39:00;980;;;6.8;87.2
12722;BME280;6425;50.316;8.114;2023-03-25T04:42:00;980;;;6.8;86.6
12722;BME280;6425;50.316;8.114;2023-03-25T04:45:00;980;;;6.9;86.5
12722;BME280;6425;50.316;8.114;2023-03-25T04:48:00;980;;;6.9;86.7
12722;BME280;6425;50.316;8.114;2023-03-25T04:51:00;980;;;7;85.2
12722;BME280;6425;50.316;8.114;2023-03-25T04:54:00;980;;;6.9;85.4
12722;BME280;6425;50.316;8.114;2023-03-25T04:57:00;980;;;6.9;84.2
12722;BME280;6425;50.316;8.114;2023-03-25T05:00:00;980;;;7;82.9
12722;BME280;6425;50.316;8.114;2023-03-25T05:03:00;980;;;7.1;81.8
12722;BME280;6425;50.316;8.114;2023-03-25T05:06:00;980;;;7.2;80.8
12722;BME280;6425;50.316;8.114;2023-03-25T05:09:00;980;;;7.1;81.1
12722;BME280;6425;50.316;8.114;2023-03-25T05:12:00;980;;;7.2;80.4
12722;BME280;6425;50.316;8.114;2023-03-25T05:15:00;980;;;6.9;82.5
12722;BME280;6425;50.316;8.114;2023-03-25T05:18:00;980;;;7;82
12722;BME280;6425;50.316;8.114;2023-03-25T05:21:00;980;;;6.9;81.9
12722;BME280;6425;50.316;8.114;2023-03-25T05:24:00;980;;;6.9;81.9
12722;BME280;6425;50.316;8.114;2023-03-25T05:27:00;981;;;6.7;83.1
12722;BME280;6425;50.316;8.114;2023-03-25T05:30:00;980;;;6.8;82.1
12722;BME280;6425;50.316;8.114;2023-03-25T05:33:00;981;;;6.7;82.1
12722;BME280;6425;50.316;8.114;2023-03-25T05:36:00;980;;;6.7;82.1
12722;BME280;6425;50.316;8.114;2023-03-25T05:39:00;980;;;6.5;82.7
12722;BME280;6425;50.316;8.114;2023-03-25T05:42:00;981;;;6.4;83.2
12722;BME280;6425;50.316;8.114;2023-03-25T05:45:00;981;;;6.4;83.3
12722;BME280;6425;50.316;8.114;2023-03-25T05:48:00;980;;;6.3;84.3
12722;BME280;6425;50.316;8.114;2023-03-25T05:51:00;981;;;6.3;84.1
12722;BME280;6425;50.316;8.114;2023-03-25T05:54:00;981;;;6.4;83.2
12722;BME280;6425;50.316;8.114;2023-03-25T05:57:00;980;;;6.6;83.2
12722;BME280;6425;50.316;8.114;2023-03-25T06:00:00;981;;;6.6;83.2
12722;BME280;6425;50.316;8.114;2023-03-25T06:03:00;981;;;6.6;83.4
12722;BME280;6425;50.316;8.114;2023-03-25T06:06:00;981;;;6.6;83.3
12722;BME280;6425;50.316;8.114;2023-03-25T06:09:00;981;;;6.5;84.3
12722;BME280;6425;50.316;8.114;2023-03-25T06:12:00;981;;;6.6;84.5
12722;BME280;6425;50.316;8.114;2023-03-25T06:15:00;981;;;6.9;82.8
12722;BME280;6425;50.316;8.114;2023-03-25T06:18:00;981;;;6.8;83.4
12722;BME280;6425;50.316;8.114;2023-03-25T06:21:00;981;;;6.8;83.4
12722;BME280;6425;50.316;8.114;2023-03-25T06:24:00;981;;;6.8;84.5
12722;BME280;6425;50.316;8.114;2023-03-25T06:27:00;981;;;6.9;83.4
12722;BME280;6425;50.316;8.114;2023-03-25T06:30:00;981;;;6.8;84.5
12722;BME280;6425;50.316;8.114;2023-03-25T06:33:00;981;;;6.9;84.2
12722;BME280;6425;50.316;8.114;2023-03-25T06:36:00;980;;;7.1;83.3
12722;BME280;6425;50.316;8.114;2023-03-25T06:39:00;980;;;7.1;84
12722;BME280;6425;50.316;8.114;2023-03-25T06:42:00;980;;;7;84.3
12722;BME280;6425;50.316;8.114;2023-03-25T06:45:00;981;;;6.9;84.6
12722;BME280;6425;50.316;8.114;2023-03-25T06:48:00;981;;;6.8;85.1
12722;BME280;6425;50.316;8.114;2023-03-25T06:51:00;981;;;7.1;83.6
12722;BME280;6425;50.316;8.114;2023-03-25T06:54:00;981;;;7.2;82.3
12722;BME280;6425;50.316;8.114;2023-03-25T06:57:00;981;;;7.3;82.3
12722;BME280;6425;50.316;8.114;2023-03-25T07:00:00;981;;;7.3;82.3
12722;BME280;6425;50.316;8.114;2023-03-25T07:03:00;981;;;7.3;81.6
12722;BME280;6425;50.316;8.114;2023-03-25T07:06:00;981;;;7.2;82.5
12722;BME280;6425;50.316;8.114;2023-03-25T07:09:00;981;;;7.5;80.2
12722;BME280;6425;50.316;8.114;2023-03-25T07:12:00;980;;;7.4;80.9
12722;BME280;6425;50.316;8.114;2023-03-25T07:15:00;980;;;7.3;81.2
12722;BME280;6425;50.316;8.114;2023-03-25T07:18:00;980;;;7.3;81.6
12722;BME280;6425;50.316;8.114;2023-03-25T07:21:00;980;;;7.5;81.8
12722;BME280;6425;50.316;8.114;2023-03-25T07:24:00;980;;;7.3;82.5
12722;BME280;6425;50.316;8.114;2023-03-25T07:27:00;980;;;7.4;81.8
12722;BME280;6425;50.316;8.114;2023-03-25T07:30:00;980;;;7.5;81.5
12722;BME280;6425;50.316;8.114;2023-03-25T07:33:00;980;;;7.5;80.2
12722;BME280;6425;50.316;8.114;2023-03-25T07:36:00;980;;;7.5;80.8
12722;BME280;6425;50.316;8.114;2023-03-25T07:39:00;980;;;7.5;80.7
12722;BME280;6425;50.316;8.114;2023-03-25T07:42:00;981;;;7.6;80.3
12722;BME280;6425;50.316;8.114;2023-03-25T07:45:00;981;;;7.7;81.3
12722;BME280;6425;50.316;8.114;2023-03-25T07:48:00;980;;;7.8;79.8
12722;BME280;6425;50.316;8.114;2023-03-25T07:51:00;980;;;7.9;80
12722;BME280;6425;50.316;8.114;2023-03-25T07:54:00;980;;;7.9;78.5
12722;BME280;6425;50.316;8.114;2023-03-25T07:57:00;980;;;7.9;78.2
12722;BME280;6425;50.316;8.114;2023-03-25T08:00:00;980;;;8;78
12722;BME280;6425;50.316;8.114;2023-03-25T08:03:00;980;;;8;76.5
12722;BME280;6425;50.316;8.114;2023-03-25T08:06:00;980;;;8;77
12722;BME280;6425;50.316;8.114;2023-03-25T08:09:00;980;;;8.2;77.2
12722;BME280;6425;50.316;8.114;2023-03-25T08:12:00;981;;;8.5;78.3
12722;BME280;6425;50.316;8.114;2023-03-25T08:15:00;981;;;8.4;77.1
12722;BME280;6425;50.316;8.114;2023-03-25T08:18:00;980;;;8.3;77.1
12722;BME280;6425;50.316;8.114;2023-03-25T08:21:00;981;;;8.4;77.2
12722;BME280;6425;50.316;8.114;2023-03-25T08:24:00;980;;;8.5;77.1
12722;BME280;6425;50.316;8.114;2023-03-25T08:27:00;981;;;8.4;75.6
12722;BME280;6425;50.316;8.114;2023-03-25T08:30:00;981;;;8.2;75.7
12722;BME280;6425;50.316;8.114;2023-03-25T08:33:00;980;;;8;78.2
12722;BME280;6425;50.316;8.114;2023-03-25T08:36:00;980;;;8;78.5
12722;BME280;6425;50.316;8.114;2023-03-25T08:39:00;980;;;8.1;77.9
12722;BME280;6425;50.316;8.114;2023-03-25T08:42:00;980;;;8.2;78.6
12722;BME280;6425;50.316;8.114;2023-03-25T08:45:00;980;;;8.3;78.1
12722;BME280;6425;50.316;8.114;2023-03-25T08:48:00;980;;;8.5;77.9
12722;BME280;6425;50.316;8.114;2023-03-25T08:51:00;980;;;8.5;77.6
12722;BME280;6425;50.316;8.114;2023-03-25T08:54:00;980;;;8.3;78.7
12722;BME280;6425;50.316;8.114;2023-03-25T08:57:00;981;;;8;81.4
12722;BME280;6425;50.316;8.114;2023-03-25T09:00:00;981;;;5.3;88
12722;BME280;6425;50.316;8.114;2023-03-25T09:03:00;981;;;5.3;89.1
12722;BME280;6425;50.316;8.114;2023-03-25T09:06:01;981;;;5.6;87.4
12722;BME280;6425;50.316;8.114;2023-03-25T09:09:00;981;;;5.7;87
12722;BME280;6425;50.316;8.114;2023-03-25T09:12:00;981;;;5.5;87.8
12722;BME280;6425;50.316;8.114;2023-03-25T09:15:00;981;;;5.3;89.8
12722;BME280;6425;50.316;8.114;2023-03-25T09:18:00;981;;;5.2;90.2
12722;BME280;6425;50.316;8.114;2023-03-25T09:21:00;981;;;5.2;91.5
12722;BME280;6425;50.316;8.114;2023-03-25T09:24:00;981;;;5.3;91.1
12722;BME280;6425;50.316;8.114;2023-03-25T09:27:00;981;;;5.5;90.2
12722;BME280;6425;50.316;8.114;2023-03-25T09:30:00;981;;;5.5;91.1
12722;BME280;6425;50.316;8.114;2023-03-25T09:33:00;981;;;5.6;91.8
12722;BME280;6425;50.316;8.114;2023-03-25T09:36:00;981;;;5.6;92.3
12722;BME280;6425;50.316;8.114;2023-03-25T09:39:00;981;;;5.7;91.3
12722;BME280;6425;50.316;8.114;2023-03-25T09:42:02;981;;;5.7;92.8
12722;BME280;6425;50.316;8.114;2023-03-25T09:45:03;981;;;5.7;94.5
12722;BME280;6425;50.316;8.114;2023-03-25T09:48:01;981;;;5.7;94.1
12722;BME280;6425;50.316;8.114;2023-03-25T09:51:00;981;;;6;94.8
12722;BME280;6425;50.316;8.114;2023-03-25T09:54:01;981;;;6.6;93.7
12722;BME280;6425;50.316;8.114;2023-03-25T09:57:01;981;;;6.6;92.1
12722;BME280;6425;50.316;8.114;2023-03-25T10:00:00;981;;;6.7;90.7
12722;BME280;6425;50.316;8.114;2023-03-25T10:03:06;981;;;7.1;89.2
12722;BME280;6425;50.316;8.114;2023-03-25T10:06:03;981;;;7.6;89.3
12722;BME280;6425;50.316;8.114;2023-03-25T10:09:11;981;;;7.6;86.8
12722;BME280;6425;50.316;8.114;2023-03-25T10:12:00;981;;;8;85.8
12722;BME280;6425;50.316;8.114;2023-03-25T10:15:02;981;;;7.9;84.3
12722;BME280;6425;50.316;8.114;2023-03-25T10:18:03;981;;;7.8;84.6
12722;BME280;6425;50.316;8.114;2023-03-25T10:21:01;981;;;7.7;82.2
12722;BME280;6425;50.316;8.114;2023-03-25T10:24:02;981;;;8;81.8
12722;BME280;6425;50.316;8.114;2023-03-25T10:27:01;981;;;8.4;82.7
12722;BME280;6425;50.316;8.114;2023-03-25T10:30:01;981;;;8.5;80.8
12722;BME280;6425;50.316;8.114;2023-03-25T10:33:00;981;;;8.6;80
12722;BME280;6425;50.316;8.114;2023-03-25T10:36:00;981;;;9;80.8
12722;BME280;6425;50.316;8.114;2023-03-25T10:39:00;981;;;9.2;79.4
12722;BME280;6425;50.316;8.114;2023-03-25T10:42:02;981;;;9.1;77.2
12722;BME280;6425;50.316;8.114;2023-03-25T10:45:00;981;;;9.1;75
12722;BME280;6425;50.316;8.114;2023-03-25T10:48:01;981;;;9.4;74.4
12722;BME280;6425;50.316;8.114;2023-03-25T10:51:01;981;;;9.7;74.7
12722;BME280;6425;50.316;8.114;2023-03-25T10:54:00;981;;;9.3;75.3
12722;BME280;6425;50.316;8.114;2023-03-25T10:57:00;981;;;9.2;75
12722;BME280;6425;50.316;8.114;2023-03-25T11:00:02;981;;;9.3;73.3
12722;BME280;6425;50.316;8.114;2023-03-25T11:03:00;980;;;9.6;73
12722;BME280;6425;50.316;8.114;2023-03-25T11:06:00;981;;;9.5;72.5
12722;BME280;6425;50.316;8.114;2023-03-25T11:09:16;981;;;9.6;70
12722;BME280;6425;50.316;8.114;2023-03-25T11:12:01;981;;;9.7;68.8
12722;BME280;6425;50.316;8.114;2023-03-25T11:15:00;981;;;10.1;68.2
12722;BME280;6425;50.316;8.114;2023-03-25T11:18:00;981;;;10.4;68.1
12722;BME280;6425;50.316;8.114;2023-03-25T11:21:00;981;;;10.3;64.7
12722;BME280;6425;50.316;8.114;2023-03-25T11:24:00;981;;;10.2;64.3
12722;BME280;6425;50.316;8.114;2023-03-25T11:27:00;981;;;10.1;65.1
12722;BME280;6425;50.316;8.114;2023-03-25T11:30:00;981;;;10;64.7
12722;BME280;6425;50.316;8.114;2023-03-25T11:33:02;981;;;10.3;65.7
12722;BME280;6425;50.316;8.114;2023-03-25T11:36:08;980;;;10.4;65.4
12722;BME280;6425;50.316;8.114;2023-03-25T11:39:01;980;;;10.3;64.9
12722;BME280;6425;50.316;8.114;2023-03-25T11:42:05;981;;;10.5;66.2
12722;BME280;6425;50.316;8.114;2023-03-25T11:45:00;981;;;10.8;66.4
12722;BME280;6425;50.316;8.114;2023-03-25T11:48:01;981;;;10.4;65.6
12722;BME280;6425;50.316;8.114;2023-03-25T11:51:01;981;;;10.4;64.2
12722;BME280;6425;50.316;8.114;2023-03-25T11:54:00;981;;;10.3;63.8
12722;BME280;6425;50.316;8.114;2023-03-25T11:57:01;981;;;10.2;65.5
12722;BME280;6425;50.316;8.114;2023-03-25T12:00:00;981;;;10.7;66.5
12722;BME280;6425;50.316;8.114;2023-03-25T12:03:00;981;;;10.6;67
12722;BME280;6425;50.316;8.114;2023-03-25T12:06:02;981;;;10.1;66.7
12722;BME280;6425;50.316;8.114;2023-03-25T12:09:00;981;;;10;65
12722;BME280;6425;50.316;8.114;2023-03-25T12:12:06;981;;;10.5;65.7
12722;BME280;6425;50.316;8.114;2023-03-25T12:15:02;981;;;10.4;66
12722;BME280;6425;50.316;8.114;2023-03-25T12:18:03;981;;;10.6;66.2
12722;BME280;6425;50.316;8.114;2023-03-25T12:21:01;981;;;10.7;66.1
12722;BME280;6425;50.316;8.114;2023-03-25T12:24:04;981;;;10.5;66.2
12722;BME280;6425;50.316;8.114;2023-03-25T12:27:05;980;;;10.8;65.9
12722;BME280;6425;50.316;8.114;2023-03-25T12:30:02;981;;;10.8;64.3
12722;BME280;6425;50.316;8.114;2023-03-25T12:33:02;980;;;10.7;62.5
12722;BME280;6425;50.316;8.114;2023-03-25T12:36:05;981;;;10.6;62.7
12722;BME280;6425;50.316;8.114;2023-03-25T12:39:02;981;;;11.1;65.4
12722;BME280;6425;50.316;8.114;2023-03-25T12:42:00;981;;;10.7;64.2
12722;BME280;6425;50.316;8.114;2023-03-25T12:45:08;981;;;10.9;64.6
12722;BME280;6425;50.316;8.114;2023-03-25T12:48:01;981;;;10.5;65
12722;BME280;6425;50.316;8.114;2023-03-25T12:51:02;981;;;10.7;66.5
12722;BME280;6425;50.316;8.114;2023-03-25T12:54:02;981;;;9.7;68.4
12722;BME280;6425;50.316;8.114;2023-03-25T12:57:02;981;;;9.1;73.6
12722;BME280;6425;50.316;8.114;2023-03-25T13:00:02;981;;;9.3;74.8
12722;BME280;6425;50.316;8.114;2023-03-25T13:03:07;981;;;9.5;72.3
12722;BME280;6425;50.316;8.114;2023-03-25T13:06:02;981;;;10.2;73.1
12722;BME280;6425;50.316;8.114;2023-03-25T13:09:01;981;;;9.8;69.7
12722;BME280;6425;50.316;8.114;2023-03-25T13:12:00;981;;;10.1;69
12722;BME280;6425;50.316;8.114;2023-03-25T13:15:01;980;;;10;67.5
12722;BME280;6425;50.316;8.114;2023-03-25T13:18:00;980;;;10.2;67.1
12722;BME280;6425;50.316;8.114;2023-03-25T13:21:00;980;;;10.7;66.1
12722;BME280;6425;50.316;8.114;2023-03-25T13:24:00;980;;;10.6;63.8
12722;BME280;6425;50.316;8.114;2023-03-25T13:27:00;980;;;10.2;64.2
12722;BME280;6425;50.316;8.114;2023-03-25T13:30:00;981;;;10.3;64.7
12722;BME280;6425;50.316;8.114;2023-03-25T13:33:02;980;;;10.5;65
12722;BME280;6425;50.316;8.114;2023-03-25T13:36:01;980;;;10.3;64.8
12722;BME280;6425;50.316;8.114;2023-03-25T13:39:00;980;;;10.8;66.3
12722;BME280;6425;50.316;8.114;2023-03-25T13:42:02;980;;;10.9;64.2
12722;BME280;6425;50.316;8.114;2023-03-25T13:45:00;980;;;10.7;61.6
12722;BME280;6425;50.316;8.114;2023-03-25T13:48:00;980;;;11.1;62.2
12722;BME280;6425;50.316;8.114;2023-03-25T13:51:01;980;;;11.2;61.2
12722;BME280;6425;50.316;8.114;2023-03-25T13:54:00;980;;;11.2;61.4
12722;BME280;6425;50.316;8.114;2023-03-25T13:57:21;980;;;11.2;58.8
12722;BME280;6425;50.316;8.114;2023-03-25T14:00:05;981;;;11.5;59.3
12722;BME280;6425;50.316;8.114;2023-03-25T14:03:18;981;;;11.8;58.2
12722;BME280;6425;50.316;8.114;2023-03-25T14:06:13;980;;;11.6;56.7
12722;BME280;6425;50.316;8.114;2023-03-25T14:12:00;980;;;11.7;57
12722;BME280;6425;50.316;8.114;2023-03-25T14:15:00;981;;;11.5;53.3
12722;BME280;6425;50.316;8.114;2023-03-25T14:18:00;980;;;11.4;52.4
12722;BME280;6425;50.316;8.114;2023-03-25T14:21:10;980;;;11.5;52.9
12722;BME280;6425;50.316;8.114;2023-03-25T14:24:01;981;;;11.6;52.9
12722;BME280;6425;50.316;8.114;2023-03-25T14:27:00;981;;;11.5;50.8
12722;BME280;6425;50.316;8.114;2023-03-25T14:30:01;980;;;11.7;52.6
12722;BME280;6425;50.316;8.114;2023-03-25T14:33:00;980;;;11.8;52
12722;BME280;6425;50.316;8.114;2023-03-25T14:36:00;980;;;12;54
12722;BME280;6425;50.316;8.114;2023-03-25T14:39:00;980;;;11.8;54.8
12722;BME280;6425;50.316;8.114;2023-03-25T14:42:00;980;;;11.9;52.1
12722;BME280;6425;50.316;8.114;2023-03-25T14:45:32;980;;;12;52
12722;BME280;6425;50.316;8.114;2023-03-25T14:48:00;980;;;12.1;51
12722;BME280;6425;50.316;8.114;2023-03-25T14:52:08;980;;;12;52
12722;BME280;6425;50.316;8.114;2023-03-25T14:54:00;980;;;11.5;50.8
12722;BME280;6425;50.316;8.114;2023-03-25T14:57:00;980;;;11.5;50.9
12722;BME280;6425;50.316;8.114;2023-03-25T15:00:00;980;;;11.7;49.7
12722;BME280;6425;50.316;8.114;2023-03-25T15:03:00;980;;;11.8;49.7
12722;BME280;6425;50.316;8.114;2023-03-25T15:06:00;980;;;12.1;50.7
12722;BME280;6425;50.316;8.114;2023-03-25T15:09:00;980;;;11.8;48.3
12722;BME280;6425;50.316;8.114;2023-03-25T15:12:00;980;;;12;48.6
12722;BME280;6425;50.316;8.114;2023-03-25T15:15:04;980;;;12.1;50.1
12722;BME280;6425;50.316;8.114;2023-03-25T15:18:00;980;;;11.5;50.5
12722;BME280;6425;50.316;8.114;2023-03-25T15:21:01;980;;;11.7;51.3
12722;BME280;6425;50.316;8.114;2023-03-25T15:24:02;980;;;12.1;49.4
12722;BME280;6425;50.316;8.114;2023-03-25T15:27:01;980;;;12.2;51
12722;BME280;6425;50.316;8.114;2023-03-25T15:30:01;980;;;12;50.5
12722;BME280;6425;50.316;8.114;2023-03-25T15:33:05;980;;;11.9;50.2
12722;BME280;6425;50.316;8.114;2023-03-25T15:36:04;980;;;11.6;53.4
12722;BME280;6425;50.316;8.114;2023-03-25T15:39:05;980;;;11.5;51.2
12722;BME280;6425;50.316;8.114;2023-03-25T15:42:06;980;;;11.4;50.9
12722;BME280;6425;50.316;8.114;2023-03-25T15:45:36;980;;;11.4;51.7
12722;BME280;6425;50.316;8.114;2023-03-25T15:48:06;980;;;11.4;52.7
12722;BME280;6425;50.316;8.114;2023-03-25T15:51:05;980;;;11.5;52.6
12722;BME280;6425;50.316;8.114;2023-03-25T15:54:02;980;;;11.3;53.9
12722;BME280;6425;50.316;8.114;2023-03-25T15:57:00;980;;;11.3;53.4
12722;BME280;6425;50.316;8.114;2023-03-25T16:00:01;980;;;11.1;55.4
12722;BME280;6425;50.316;8.114;2023-03-25T16:03:00;980;;;11.1;54.8
12722;BME280;6425;50.316;8.114;2023-03-25T16:06:01;980;;;11;55.4
12722;BME280;6425;50.316;8.114;2023-03-25T16:09:00;980;;;11;56.5
12722;BME280;6425;50.316;8.114;2023-03-25T16:12:00;980;;;11.1;57
12722;BME280;6425;50.316;8.114;2023-03-25T16:15:03;980;;;10.9;55.3
12722;BME280;6425;50.316;8.114;2023-03-25T16:18:00;980;;;11;54.7
12722;BME280;6425;50.316;8.114;2023-03-25T16:21:00;980;;;10.9;53.7
12722;BME280;6425;50.316;8.114;2023-03-25T16:24:01;980;;;10.8;54.4
12722;BME280;6425;50.316;8.114;2023-03-25T16:27:07;980;;;10.7;55.6
12722;BME280;6425;50.316;8.114;2023-03-25T16:30:00;980;;;10.5;56.6
12722;BME280;6425;50.316;8.114;2023-03-25T16:33:04;981;;;10.4;58.5
12722;BME280;6425;50.316;8.114;2023-03-25T16:36:02;981;;;10.2;59.2
12722;BME280;6425;50.316;8.114;2023-03-25T16:39:00;980;;;10.1;59.8
12722;BME280;6425;50.316;8.114;2023-03-25T16:42:00;981;;;10.4;58.7
12722;BME280;6425;50.316;8.114;2023-03-25T16:45:00;981;;;10.3;59.4
12722;BME280;6425;50.316;8.114;2023-03-25T16:48:01;981;;;10.6;59.4
12722;BME280;6425;50.316;8.114;2023-03-25T16:51:01;981;;;10.8;58.8
12722;BME280;6425;50.316;8.114;2023-03-25T16:54:00;981;;;10.7;58.5
12722;BME280;6425;50.316;8.114;2023-03-25T16:57:00;981;;;10.6;58.7
12722;BME280;6425;50.316;8.114;2023-03-25T17:00:02;981;;;10.5;59.6
12722;BME280;6425;50.316;8.114;2023-03-25T17:03:00;981;;;10.5;59.7
12722;BME280;6425;50.316;8.114;2023-03-25T17:06:00;981;;;10.3;60.8
12722;BME280;6425;50.316;8.114;2023-03-25T17:09:00;981;;;10.2;61.4
12722;BME280;6425;50.316;8.114;2023-03-25T17:12:00;981;;;10.1;61
12722;BME280;6425;50.316;8.114;2023-03-25T17:15:02;981;;;10.2;60.3
12722;BME280;6425;50.316;8.114;2023-03-25T17:18:00;981;;;10;62.4
12722;BME280;6425;50.316;8.114;2023-03-25T17:21:00;981;;;9.9;61.9
12722;BME280;6425;50.316;8.114;2023-03-25T17:24:00;981;;;10;61.3
12722;BME280;6425;50.316;8.114;2023-03-25T17:27:02;981;;;9.9;61
12722;BME280;6425;50.316;8.114;2023-03-25T17:30:13;981;;;9.9;61.1
12722;BME280;6425;50.316;8.114;2023-03-25T17:33:07;981;;;10;60.3
12722;BME280;6425;50.316;8.114;2023-03-25T17:36:00;981;;;9.9;60.5
12722;BME280;6425;50.316;8.114;2023-03-25T17:39:00;981;;;9.9;60.2
12722;BME280;6425;50.316;8.114;2023-03-25T17:42:00;981;;;9.7;61.5
12722;BME280;6425;50.316;8.114;2023-03-25T17:45:00;981;;;9.8;61.3
12722;BME280;6425;50.316;8.114;2023-03-25T17:48:00;981;;;9.6;61.7
12722;BME280;6425;50.316;8.114;2023-03-25T17:51:00;981;;;9.5;62.3
12722;BME280;6425;50.316;8.114;2023-03-25T17:54:00;981;;;9.5;62.9
12722;BME280;6425;50.316;8.114;2023-03-25T17:57:00;981;;;9.5;62.3
12722;BME280;6425;50.316;8.114;2023-03-25T18:00:00;981;;;9.3;63.6
12722;BME280;6425;50.316;8.114;2023-03-25T18:03:00;981;;;9.2;64.3
12722;BME280;6425;50.316;8.114;2023-03-25T18:06:00;981;;;9.4;63.8
12722;BME280;6425;50.316;8.114;2023-03-25T18:09:00;981;;;9.1;65